Time;durP1;ratioP1;P1;durP2;ratioP2;P2;SDS_P1;SDS_P2;PMS_P1;PMS_P2;Temp;Humidity;BMP_temperature;BMP_pressure;BME280_temperature;BME280_humidity;BME280_pressure;Samples;Min_cycle;Max_cycle;Signal;HPM_P1;HPM_P2
2021/12/19 00:02:45;;;;;;;;;;;16.00;37.00;;;;;;8301730;28;20024;-48
2021/12/19 00:11:04;;;;;;;;;;;16.00;37.00;;;;;;8300956;28;19976;-49
2021/12/19 00:15:05;;;;;;;;;;;16.00;37.00;;;;;;8301410;28;20375;-49
2021/12/19 00:19:06;;;;;;;;;;;16.00;37.10;;;;;;8301466;28;19913;-48
2021/12/19 00:23:06;;;;;;;;;;;16.00;37.10;;;;;;8300637;28;19921;-50
2021/12/19 00:27:07;;;;;;;;;;;15.90;37.00;;;;;;8301057;28;20012;-49
2021/12/19 00:31:08;;;;;;;;;;;15.90;37.00;;;;;;8300907;28;19925;-52
2021/12/19 00:35:09;;;;;;;;;;;15.90;37.00;;;;;;8300374;28;19924;-51
2021/12/19 00:39:09;;;;;;;;;;;15.90;37.10;;;;;;8301158;28;19918;-49
2021/12/19 00:43:22;;;;;;;;;;;15.90;37.10;;;;;;8298089;28;19918;-49
2021/12/19 00:47:22;;;;;;;;;;;15.90;37.10;;;;;;8302286;28;20433;-49
2021/12/19 00:51:24;;;;;;;;;;;15.90;37.10;;;;;;8299968;28;19975;-49
2021/12/19 00:55:27;;;;;;;;;;;15.90;37.10;;;;;;8299576;28;20329;-48
2021/12/19 00:59:27;;;;;;;;;;;15.90;37.10;;;;;;8300331;28;19920;-48
2021/12/19 01:03:28;;;;;;;;;;;15.90;37.10;;;;;;8299830;28;19918;-48
2021/12/19 01:07:29;;;;;;;;;;;15.90;37.10;;;;;;8298675;28;19925;-47
2021/12/19 01:11:29;;;;;;;;;;;15.90;37.10;;;;;;8299473;28;19976;-49
2021/12/19 01:15:30;;;;;;;;;;;15.80;37.10;;;;;;8299373;28;19918;-47
2021/12/19 01:19:31;;;;;;;;;;;15.90;37.10;;;;;;8299120;28;19921;-48
2021/12/19 01:23:31;;;;;;;;;;;15.80;37.10;;;;;;8299263;28;19917;-48
2021/12/19 01:27:32;;;;;;;;;;;15.90;37.20;;;;;;8299169;28;19914;-48
2021/12/19 01:31:32;;;;;;;;;;;15.80;37.10;;;;;;8298409;28;19932;-48
2021/12/19 01:35:33;;;;;;;;;;;15.90;37.20;;;;;;8299313;28;19992;-48
2021/12/19 01:39:33;;;;;;;;;;;15.90;37.10;;;;;;8298798;28;20256;-48
2021/12/19 01:43:33;;;;;;;;;;;16.00;37.20;;;;;;8298253;28;19925;-48
2021/12/19 01:47:34;;;;;;;;;;;15.90;37.10;;;;;;8298936;28;19928;-47
2021/12/19 01:51:36;;;;;;;;;;;15.90;37.10;;;;;;8298506;28;19928;-48
2021/12/19 01:55:37;;;;;;;;;;;15.90;37.00;;;;;;8297841;28;19918;-48
2021/12/19 01:59:37;;;;;;;;;;;15.90;37.00;;;;;;8298564;28;19921;-49
2021/12/19 02:03:38;;;;;;;;;;;15.90;37.00;;;;;;8297491;28;19925;-49
2021/12/19 02:07:42;;;;;;;;;;;15.90;37.00;;;;;;8297623;28;20004;-48
2021/12/19 02:11:43;;;;;;;;;;;15.90;37.00;;;;;;8298073;28;19926;-48
2021/12/19 02:15:45;;;;;;;;;;;15.90;37.00;;;;;;8297968;28;19963;-48
2021/12/19 02:19:45;;;;;;;;;;;15.90;37.00;;;;;;8296643;28;19921;-51
2021/12/19 02:23:46;;;;;;;;;;;15.90;37.10;;;;;;8297867;28;20001;-47
2021/12/19 02:27:46;;;;;;;;;;;15.90;37.00;;;;;;8297548;28;19918;-48
2021/12/19 02:31:47;;;;;;;;;;;15.90;37.00;;;;;;8297163;28;19929;-48
2021/12/19 02:35:57;;;;;;;;;;;15.90;37.00;;;;;;8297495;28;19913;-47
2021/12/19 02:48:18;;;;;;;;;;;15.90;37.00;;;;;;8297458;28;20385;-47
2021/12/19 02:52:20;;;;;;;;;;;15.90;37.00;;;;;;8296811;28;20001;-48
2021/12/19 02:56:21;;;;;;;;;;;15.90;37.10;;;;;;8297212;28;19925;-50
2021/12/19 03:00:23;;;;;;;;;;;15.90;37.10;;;;;;8297391;28;19914;-48
2021/12/19 03:04:24;;;;;;;;;;;15.80;37.00;;;;;;8296602;28;20378;-48
2021/12/19 03:08:25;;;;;;;;;;;15.80;37.10;;;;;;8296876;28;20059;-50
2021/12/19 03:21:11;;;;;;;;;;;15.80;37.10;;;;;;8297097;28;19924;-48
2021/12/19 03:25:11;;;;;;;;;;;15.80;37.10;;;;;;8296375;28;19914;-48
2021/12/19 03:29:12;;;;;;;;;;;15.80;37.10;;;;;;8296568;28;20020;-50
2021/12/19 03:33:13;;;;;;;;;;;15.80;37.10;;;;;;8301943;28;19918;-50
2021/12/19 03:37:13;;;;;;;;;;;15.70;37.10;;;;;;8302101;28;19917;-50
2021/12/19 03:41:22;;;;;;;;;;;15.80;37.10;;;;;;8302852;28;19971;-47
2021/12/19 03:45:23;;;;;;;;;;;15.80;37.10;;;;;;8302948;28;19921;-48
2021/12/19 03:49:24;;;;;;;;;;;15.80;37.10;;;;;;8302009;28;19933;-49
2021/12/19 03:53:24;;;;;;;;;;;15.80;37.10;;;;;;8302315;28;20251;-47
2021/12/19 03:57:25;;;;;;;;;;;15.80;37.00;;;;;;8301901;28;20434;-48
2021/12/19 04:01:25;;;;;;;;;;;15.80;37.00;;;;;;8301400;28;20051;-48
2021/12/19 04:05:26;;;;;;;;;;;15.80;37.00;;;;;;8301824;28;19913;-47
2021/12/19 04:09:27;;;;;;;;;;;15.90;37.00;;;;;;8301558;28;19930;-47
2021/12/19 04:13:27;;;;;;;;;;;15.90;37.00;;;;;;8300924;28;20008;-47
2021/12/19 04:17:28;;;;;;;;;;;15.90;37.00;;;;;;8301501;28;19918;-48
2021/12/19 04:21:28;;;;;;;;;;;15.90;37.00;;;;;;8301335;28;19913;-47
2021/12/19 04:25:29;;;;;;;;;;;15.90;37.00;;;;;;8300769;28;19917;-47
2021/12/19 04:29:30;;;;;;;;;;;15.90;37.00;;;;;;8300867;28;20349;-47
2021/12/19 04:33:31;;;;;;;;;;;15.90;37.00;;;;;;8300654;28;20012;-47
2021/12/19 04:59:12;;;;;;;;;;;15.90;36.90;;;;;;8300244;28;20375;-47
2021/12/19 05:16:18;;;;;;;;;;;15.80;36.90;;;;;;8300173;28;19914;-47
2021/12/19 05:20:22;;;;;;;;;;;15.90;37.00;;;;;;8299183;28;19918;-47
2021/12/19 05:24:47;;;;;;;;;;;15.80;37.00;;;;;;8299225;28;20227;-47
2021/12/19 05:28:48;;;;;;;;;;;15.80;36.90;;;;;;8298488;28;19972;-50
2021/12/19 05:32:49;;;;;;;;;;;15.80;36.90;;;;;;8299015;28;19918;-47
2021/12/19 05:45:39;;;;;;;;;;;15.80;36.90;;;;;;8297038;28;19968;-48
2021/12/19 05:49:39;;;;;;;;;;;15.80;36.90;;;;;;8297841;28;20379;-47
2021/12/19 05:53:40;;;;;;;;;;;15.80;36.90;;;;;;8298133;28;19956;-48
2021/12/19 05:57:40;;;;;;;;;;;15.80;36.90;;;;;;8298463;28;19918;-47
2021/12/19 06:01:42;;;;;;;;;;;15.80;36.90;;;;;;8297882;28;19921;-47
2021/12/19 06:05:43;;;;;;;;;;;15.80;36.90;;;;;;8298348;28;19928;-48
2021/12/19 06:09:43;;;;;;;;;;;15.80;36.90;;;;;;8297816;28;19933;-48
2021/12/19 06:13:44;;;;;;;;;;;15.80;36.90;;;;;;8297424;28;20695;-48
2021/12/19 06:17:45;;;;;;;;;;;15.80;36.90;;;;;;8297906;28;19921;-47
2021/12/19 06:21:45;;;;;;;;;;;15.80;37.00;;;;;;8297759;28;20300;-48
2021/12/19 06:25:46;;;;;;;;;;;15.80;36.90;;;;;;8297242;28;19948;-50
2021/12/19 06:29:46;;;;;;;;;;;15.80;36.90;;;;;;8297742;28;20437;-51
2021/12/19 06:33:47;;;;;;;;;;;15.80;36.90;;;;;;8297522;28;19917;-47
2021/12/19 06:37:48;;;;;;;;;;;15.70;36.90;;;;;;8297071;28;19928;-49
2021/12/19 06:41:49;;;;;;;;;;;15.80;36.90;;;;;;8297520;28;19914;-48
2021/12/19 06:45:49;;;;;;;;;;;15.70;36.90;;;;;;8297730;28;19923;-47
2021/12/19 06:49:50;;;;;;;;;;;15.80;36.90;;;;;;8296575;28;19948;-48
2021/12/19 06:53:50;;;;;;;;;;;15.70;36.90;;;;;;8279621;28;19918;-48
2021/12/19 06:57:51;;;;;;;;;;;15.70;36.90;;;;;;8297017;28;20336;-48
2021/12/19 07:01:51;;;;;;;;;;;15.70;36.90;;;;;;8296798;28;19936;-48
2021/12/19 07:05:52;;;;;;;;;;;15.80;36.90;;;;;;8298746;28;20375;-48
2021/12/19 07:09:52;;;;;;;;;;;15.70;36.90;;;;;;8303367;28;20375;-47
2021/12/19 07:13:53;;;;;;;;;;;15.80;36.90;;;;;;8302687;28;19917;-47
2021/12/19 07:17:53;;;;;;;;;;;15.70;36.90;;;;;;8303492;28;19933;-47
2021/12/19 07:21:53;;;;;;;;;;;15.70;36.90;;;;;;8303363;28;19991;-48
2021/12/19 07:25:54;;;;;;;;;;;15.70;36.90;;;;;;8302289;28;19924;-47
2021/12/19 07:29:57;;;;;;;;;;;15.70;36.80;;;;;;8302637;28;19933;-47
2021/12/19 07:33:57;;;;;;;;;;;15.70;36.80;;;;;;8302645;28;19983;-48
2021/12/19 07:37:58;;;;;;;;;;;15.70;36.90;;;;;;8302131;28;20310;-47
2021/12/19 07:41:58;;;;;;;;;;;15.70;36.90;;;;;;8302639;28;19914;-49
2021/12/19 07:45:59;;;;;;;;;;;15.70;36.90;;;;;;8302602;28;19921;-47
2021/12/19 07:49:59;;;;;;;;;;;15.70;36.80;;;;;;8301628;28;19929;-48
2021/12/19 07:54:01;;;;;;;;;;;15.70;36.80;;;;;;8301917;28;20299;-48
2021/12/19 07:58:01;;;;;;;;;;;15.70;36.90;;;;;;8301965;28;20341;-47
2021/12/19 08:02:04;;;;;;;;;;;15.70;36.90;;;;;;8301436;28;19925;-48
2021/12/19 08:06:04;;;;;;;;;;;15.70;36.80;;;;;;8300820;28;20021;-48
2021/12/19 08:11:39;;;;;;;;;;;15.70;36.80;;;;;;8301363;28;19980;-48
2021/12/19 08:14:35;;;;;;;;;;;15.70;36.80;;;;;;8301089;28;19970;-49
2021/12/19 08:18:35;;;;;;;;;;;15.70;36.80;;;;;;8301137;28;19921;-48
2021/12/19 08:22:36;;;;;;;;;;;15.70;36.80;;;;;;8300943;28;20378;-49
2021/12/19 08:26:37;;;;;;;;;;;15.70;36.90;;;;;;8301020;28;19952;-51
2021/12/19 08:30:37;;;;;;;;;;;15.70;36.80;;;;;;8300732;28;19936;-52
2021/12/19 08:34:38;;;;;;;;;;;15.70;36.90;;;;;;8300304;28;19918;-52
2021/12/19 08:38:38;;;;;;;;;;;15.70;36.80;;;;;;8300626;28;19941;-50
2021/12/19 08:42:39;;;;;;;;;;;15.70;36.80;;;;;;8300831;28;19939;-49
2021/12/19 08:46:41;;;;;;;;;;;15.70;36.80;;;;;;8299727;28;19921;-52
2021/12/19 08:50:41;;;;;;;;;;;15.70;36.80;;;;;;8300513;28;19929;-50
2021/12/19 08:54:41;;;;;;;;;;;15.70;36.80;;;;;;8300198;28;19920;-49
2021/12/19 08:58:42;;;;;;;;;;;15.70;36.80;;;;;;8299445;28;19929;-49
2021/12/19 09:02:46;;;;;;;;;;;15.70;36.80;;;;;;8300421;28;19924;-49
2021/12/19 09:06:46;;;;;;;;;;;15.70;36.80;;;;;;8299897;28;20302;-49
2021/12/19 09:10:46;;;;;;;;;;;15.70;36.80;;;;;;8299096;28;19967;-49
2021/12/19 09:14:47;;;;;;;;;;;15.70;36.80;;;;;;8299535;28;19917;-49
2021/12/19 09:18:48;;;;;;;;;;;15.70;36.80;;;;;;8299375;28;19924;-49
2021/12/19 09:22:48;;;;;;;;;;;15.70;36.80;;;;;;8299238;28;19960;-49
2021/12/19 09:26:49;;;;;;;;;;;15.70;36.80;;;;;;8299447;28;20401;-49
2021/12/19 09:30:49;;;;;;;;;;;15.70;36.80;;;;;;8298605;28;20000;-49
2021/12/19 09:34:50;;;;;;;;;;;15.70;36.80;;;;;;8298513;28;19918;-49
2021/12/19 09:38:50;;;;;;;;;;;15.70;36.80;;;;;;8298887;28;19928;-49
2021/12/19 09:42:59;;;;;;;;;;;15.70;36.80;;;;;;8299018;28;20353;-50
2021/12/19 09:47:01;;;;;;;;;;;15.70;36.80;;;;;;8298620;28;19921;-48
2021/12/19 09:51:01;;;;;;;;;;;15.70;36.70;;;;;;8298590;28;19987;-48
2021/12/19 09:55:02;;;;;;;;;;;15.70;36.70;;;;;;8298307;28;19968;-49
2021/12/19 09:59:07;;;;;;;;;;;15.70;36.70;;;;;;8297880;28;19940;-49
2021/12/19 10:03:10;;;;;;;;;;;15.80;36.80;;;;;;8298543;28;19924;-49
2021/12/19 10:07:15;;;;;;;;;;;15.80;36.70;;;;;;8297597;28;20303;-50
2021/12/19 10:11:42;;;;;;;;;;;15.80;36.70;;;;;;8298160;28;19976;-49
2021/12/19 10:15:43;;;;;;;;;;;15.80;36.60;;;;;;8300912;28;19925;-49
2021/12/19 10:19:52;;;;;;;;;;;15.80;36.60;;;;;;8297225;28;19918;-50
2021/12/19 10:23:53;;;;;;;;;;;15.80;36.50;;;;;;8297847;28;19914;-50
2021/12/19 10:27:55;;;;;;;;;;;15.80;36.50;;;;;;8297830;28;19918;-49
2021/12/19 10:32:02;;;;;;;;;;;15.80;36.60;;;;;;8296818;28;19984;-49
2021/12/19 10:36:04;;;;;;;;;;;15.80;36.50;;;;;;8297284;28;19948;-49
2021/12/19 10:40:05;;;;;;;;;;;15.80;36.50;;;;;;8297700;28;20264;-51
2021/12/19 10:45:29;;;;;;;;;;;15.80;36.50;;;;;;8303684;28;19917;-50
2021/12/19 10:48:32;;;;;;;;;;;15.80;36.50;;;;;;8304110;28;19924;-50
2021/12/19 10:52:34;;;;;;;;;;;15.80;36.50;;;;;;8303243;28;20020;-48
2021/12/19 10:56:36;;;;;;;;;;;15.80;36.50;;;;;;8301331;28;20287;-50
2021/12/19 11:00:39;;;;;;;;;;;15.80;36.60;;;;;;8302383;28;19948;-51
2021/12/19 11:04:40;;;;;;;;;;;15.80;36.50;;;;;;8301211;28;19957;-47
2021/12/19 11:08:41;;;;;;;;;;;15.80;36.50;;;;;;8302414;28;20397;-48
2021/12/19 11:12:41;;;;;;;;;;;15.80;36.60;;;;;;8303325;28;19953;-48
2021/12/19 11:16:43;;;;;;;;;;;15.80;36.60;;;;;;8302662;28;19922;-48
2021/12/19 11:20:43;;;;;;;;;;;15.80;36.60;;;;;;8303324;28;19918;-51
2021/12/19 11:24:44;;;;;;;;;;;15.80;36.60;;;;;;8303003;28;20007;-48
2021/12/19 11:28:44;;;;;;;;;;;15.80;36.60;;;;;;8302611;28;19921;-48
2021/12/19 11:32:48;;;;;;;;;;;15.80;36.60;;;;;;8302919;28;20408;-50
2021/12/19 11:36:51;;;;;;;;;;;15.80;36.60;;;;;;8302594;28;20004;-50
2021/12/19 11:40:52;;;;;;;;;;;15.80;36.60;;;;;;8302029;28;20355;-48
2021/12/19 11:49:09;;;;;;;;;;;15.80;36.70;;;;;;8305509;28;19926;-48
2021/12/19 11:53:10;;;;;;;;;;;15.80;36.60;;;;;;8301769;28;19925;-48
2021/12/19 11:57:10;;;;;;;;;;;15.80;37.10;;;;;;8302069;28;19918;-48
2021/12/19 12:01:12;;;;;;;;;;;15.80;36.60;;;;;;8301437;28;19918;-48
2021/12/19 12:05:12;;;;;;;;;;;15.80;36.50;;;;;;8301707;28;19921;-49
2021/12/19 12:09:21;;;;;;;;;;;15.80;36.50;;;;;;8301738;28;19992;-48
2021/12/19 12:13:36;;;;;;;;;;;15.80;36.60;;;;;;8301105;28;20338;-49
2021/12/19 12:17:44;;;;;;;;;;;15.80;36.60;;;;;;8308385;28;20306;-49
2021/12/19 12:21:48;;;;;;;;;;;15.70;36.50;;;;;;8301417;28;19918;-48
2021/12/19 12:25:49;;;;;;;;;;;15.70;36.50;;;;;;8300673;28;19924;-49
2021/12/19 12:29:49;;;;;;;;;;;15.70;36.50;;;;;;8300835;28;20367;-48
2021/12/19 12:33:51;;;;;;;;;;;15.80;36.60;;;;;;8301403;28;20359;-48
2021/12/19 12:37:53;;;;;;;;;;;15.80;36.60;;;;;;8300369;28;19918;-47
2021/12/19 12:42:02;;;;;;;;;;;15.80;36.60;;;;;;8300772;28;19918;-50
2021/12/19 12:46:03;;;;;;;;;;;15.80;36.60;;;;;;8300999;28;19922;-48
2021/12/19 12:50:04;;;;;;;;;;;15.80;36.50;;;;;;8298804;28;20375;-50
2021/12/19 12:54:08;;;;;;;;;;;15.80;36.50;;;;;;8300446;28;19913;-50
2021/12/19 12:58:15;;;;;;;;;;;15.70;36.50;;;;;;8300293;28;19928;-52
2021/12/19 13:02:43;;;;;;;;;;;15.80;36.60;;;;;;8299730;28;19922;-51
2021/12/19 13:06:54;;;;;;;;;;;15.80;36.60;;;;;;8299248;28;19949;-49
2021/12/19 13:10:55;;;;;;;;;;;15.80;36.60;;;;;;8299260;28;20302;-49
2021/12/19 13:15:00;;;;;;;;;;;15.80;36.60;;;;;;8299748;28;19913;-48
2021/12/19 13:19:01;;;;;;;;;;;15.80;36.50;;;;;;8299673;28;20272;-48
2021/12/19 13:23:03;;;;;;;;;;;15.80;36.50;;;;;;8299314;28;19921;-49
2021/12/19 13:27:11;;;;;;;;;;;15.80;36.50;;;;;;8299506;28;19918;-47
2021/12/19 13:31:21;;;;;;;;;;;15.80;36.60;;;;;;8298715;28;20299;-49
2021/12/19 13:35:23;;;;;;;;;;;15.80;36.60;;;;;;8299313;28;19913;-50
2021/12/19 13:39:24;;;;;;;;;;;15.80;36.60;;;;;;8299254;28;19913;-49
2021/12/19 13:43:25;;;;;;;;;;;15.80;36.60;;;;;;8298340;28;20437;-48
2021/12/19 13:47:25;;;;;;;;;;;15.70;36.50;;;;;;8299296;28;19999;-50
2021/12/19 13:51:30;;;;;;;;;;;15.80;36.60;;;;;;8298475;28;20437;-48
2021/12/19 13:56:02;;;;;;;;;;;15.80;36.60;;;;;;8297270;28;22377;-47
2021/12/19 14:00:04;;;;;;;;;;;15.80;36.50;;;;;;8277813;28;19914;-48
2021/12/19 14:04:17;;;;;;;;;;;15.70;36.50;;;;;;8297578;28;20670;-49
2021/12/19 14:08:18;;;;;;;;;;;15.80;36.50;;;;;;8297915;28;19924;-48
2021/12/19 14:12:29;;;;;;;;;;;15.70;36.50;;;;;;8297764;28;19925;-49
2021/12/19 14:16:37;;;;;;;;;;;15.70;36.50;;;;;;8297487;28;19967;-50
2021/12/19 14:20:38;;;;;;;;;;;15.70;36.50;;;;;;8297941;28;19917;-49
2021/12/19 14:24:45;;;;;;;;;;;15.70;36.60;;;;;;8297772;28;20374;-49
2021/12/19 14:28:49;;;;;;;;;;;15.70;36.50;;;;;;8297017;28;19918;-49
2021/12/19 14:32:50;;;;;;;;;;;15.70;36.60;;;;;;8297657;28;20004;-49
2021/12/19 14:36:51;;;;;;;;;;;15.70;36.50;;;;;;8297657;28;19917;-49
2021/12/19 14:40:59;;;;;;;;;;;15.70;36.50;;;;;;8297090;28;19992;-48
2021/12/19 14:45:01;;;;;;;;;;;15.70;36.50;;;;;;8297880;28;20295;-49
2021/12/19 14:49:08;;;;;;;;;;;15.70;36.50;;;;;;8297184;28;19991;-52
2021/12/19 14:53:22;;;;;;;;;;;15.70;36.50;;;;;;8297023;28;20413;-50
2021/12/19 14:57:24;;;;;;;;;;;15.80;36.60;;;;;;8297243;28;20283;-49
2021/12/19 15:01:26;;;;;;;;;;;15.80;36.60;;;;;;8296720;28;20367;-50
2021/12/19 15:05:28;;;;;;;;;;;15.70;36.60;;;;;;8297725;28;20286;-49
2021/12/19 15:09:30;;;;;;;;;;;15.80;36.60;;;;;;8297069;28;20305;-48
2021/12/19 15:13:30;;;;;;;;;;;15.70;36.50;;;;;;8296540;28;20323;-49
2021/12/19 15:17:31;;;;;;;;;;;15.70;36.50;;;;;;8297331;28;19921;-49
2021/12/19 15:21:31;;;;;;;;;;;15.70;36.50;;;;;;8296781;28;19921;-50
2021/12/19 15:25:32;;;;;;;;;;;15.80;36.60;;;;;;8296656;28;19914;-49
2021/12/19 15:29:32;;;;;;;;;;;15.70;36.50;;;;;;8302394;28;20020;-49
2021/12/19 15:33:33;;;;;;;;;;;15.70;36.50;;;;;;8302925;28;19917;-49
2021/12/19 15:37:34;;;;;;;;;;;15.70;36.60;;;;;;8302294;28;19925;-50
2021/12/19 15:41:35;;;;;;;;;;;15.70;36.60;;;;;;8302707;28;19917;-47
2021/12/19 15:45:35;;;;;;;;;;;15.70;36.50;;;;;;8302461;28;19921;-47
2021/12/19 15:49:36;;;;;;;;;;;15.70;36.50;;;;;;8301635;28;19951;-48
2021/12/19 15:53:36;;;;;;;;;;;15.70;36.50;;;;;;8302432;28;19918;-49
2021/12/19 15:57:40;;;;;;;;;;;15.70;36.60;;;;;;8302059;28;19917;-48
2021/12/19 16:01:40;;;;;;;;;;;15.70;36.60;;;;;;8301426;28;19952;-48
2021/12/19 16:05:41;;;;;;;;;;;15.70;36.60;;;;;;8302337;28;19914;-50
2021/12/19 16:09:41;;;;;;;;;;;15.70;36.60;;;;;;8301665;28;19961;-48
2021/12/19 16:13:42;;;;;;;;;;;15.80;36.60;;;;;;8301084;28;19957;-48
2021/12/19 16:17:47;;;;;;;;;;;15.80;36.60;;;;;;8301636;28;19932;-50
2021/12/19 16:21:47;;;;;;;;;;;15.80;36.60;;;;;;8301317;28;19917;-50
2021/12/19 16:25:48;;;;;;;;;;;15.80;36.50;;;;;;8300747;28;20289;-50
2021/12/19 16:29:49;;;;;;;;;;;15.80;36.50;;;;;;8301069;28;19926;-48
2021/12/19 16:33:49;;;;;;;;;;;15.80;36.50;;;;;;8300927;28;19917;-48
2021/12/19 16:37:50;;;;;;;;;;;15.80;36.50;;;;;;8299070;28;19917;-48
2021/12/19 16:42:03;;;;;;;;;;;15.80;36.50;;;;;;8300890;28;19924;-49
2021/12/19 16:46:05;;;;;;;;;;;15.80;36.50;;;;;;8301127;28;19989;-49
2021/12/19 16:50:06;;;;;;;;;;;15.80;36.50;;;;;;8299808;28;19933;-50
2021/12/19 16:54:06;;;;;;;;;;;15.80;36.50;;;;;;8300799;28;19918;-51
2021/12/19 16:58:08;;;;;;;;;;;15.70;36.50;;;;;;8300485;28;19949;-51
2021/12/19 17:02:09;;;;;;;;;;;15.80;36.50;;;;;;8299996;28;19922;-49
2021/12/19 17:06:10;;;;;;;;;;;15.70;36.50;;;;;;8299482;28;19940;-49
2021/12/19 17:10:11;;;;;;;;;;;15.80;36.50;;;;;;8299578;28;19932;-46
2021/12/19 17:14:11;;;;;;;;;;;15.70;36.50;;;;;;8299773;28;19924;-48
2021/12/19 17:18:12;;;;;;;;;;;15.70;36.50;;;;;;8299680;28;19918;-49
2021/12/19 17:22:12;;;;;;;;;;;15.80;36.60;;;;;;8298988;28;20454;-50
2021/12/19 17:26:13;;;;;;;;;;;15.70;36.50;;;;;;8299828;28;19921;-48
2021/12/19 17:30:13;;;;;;;;;;;15.70;36.60;;;;;;8299088;28;19987;-48
2021/12/19 17:34:14;;;;;;;;;;;15.70;36.50;;;;;;8298417;28;20008;-47
2021/12/19 17:38:15;;;;;;;;;;;15.80;36.50;;;;;;8298966;28;19918;-49
2021/12/19 17:42:15;;;;;;;;;;;15.70;36.50;;;;;;8298908;28;20398;-50
2021/12/19 17:46:17;;;;;;;;;;;15.70;36.50;;;;;;8298588;28;19992;-48
2021/12/19 17:50:18;;;;;;;;;;;15.70;37.10;;;;;;8298464;28;19925;-49
2021/12/19 17:54:18;;;;;;;;;;;15.70;36.60;;;;;;8298656;28;19922;-48
2021/12/19 17:58:19;;;;;;;;;;;15.70;36.60;;;;;;8298081;28;19917;-47
2021/12/19 18:02:19;;;;;;;;;;;15.70;36.60;;;;;;8298369;28;20008;-47
2021/12/19 18:06:20;;;;;;;;;;;15.70;36.60;;;;;;8298627;28;19914;-47
2021/12/19 18:10:21;;;;;;;;;;;15.70;36.50;;;;;;8297446;28;19926;-49
2021/12/19 18:14:21;;;;;;;;;;;15.70;36.60;;;;;;8298212;28;20378;-49
2021/12/19 18:18:22;;;;;;;;;;;15.70;36.50;;;;;;8298013;28;19917;-49
2021/12/19 18:22:22;;;;;;;;;;;15.70;36.60;;;;;;8297501;28;19984;-48
2021/12/19 18:26:23;;;;;;;;;;;15.70;36.60;;;;;;8297929;28;19914;-51
2021/12/19 18:30:24;;;;;;;;;;;15.70;36.60;;;;;;8297526;28;20404;-49
2021/12/19 18:34:30;;;;;;;;;;;15.70;36.60;;;;;;8297269;28;19979;-47
2021/12/19 18:38:31;;;;;;;;;;;15.70;36.60;;;;;;8304613;28;20004;-48
2021/12/19 18:46:57;;;;;;;;;;;15.70;36.60;;;;;;8298826;28;19921;-48
2021/12/19 18:55:24;;;;;;;;;;;15.70;36.60;;;;;;8297448;28;19979;-48
2021/12/19 18:59:24;;;;;;;;;;;15.70;36.60;;;;;;8297007;28;20000;-48
2021/12/19 19:03:56;;;;;;;;;;;15.70;36.60;;;;;;8301446;28;19976;-51
2021/12/19 19:07:50;;;;;;;;;;;15.60;36.60;;;;;;8303187;28;19925;-50
2021/12/19 19:11:50;;;;;;;;;;;15.70;36.60;;;;;;8303882;28;19922;-48
2021/12/19 19:15:51;;;;;;;;;;;15.70;36.60;;;;;;8303316;28;19917;-49
2021/12/19 19:19:52;;;;;;;;;;;15.70;36.60;;;;;;8302876;28;19917;-48
2021/12/19 19:23:52;;;;;;;;;;;15.60;36.60;;;;;;8303449;28;19925;-48
2021/12/19 19:27:53;;;;;;;;;;;15.60;36.50;;;;;;8303182;28;20302;-49
2021/12/19 19:31:53;;;;;;;;;;;15.60;36.50;;;;;;8302543;28;20012;-49
2021/12/19 19:35:54;;;;;;;;;;;15.60;36.50;;;;;;8303041;28;19924;-48
2021/12/19 19:40:15;;;;;;;;;;;15.60;36.50;;;;;;8302626;28;19924;-48
2021/12/19 19:52:42;;;;;;;;;;;15.60;36.60;;;;;;8301838;28;20366;-49
2021/12/19 19:56:42;;;;;;;;;;;15.60;36.50;;;;;;8302643;28;20363;-49
2021/12/19 20:00:43;;;;;;;;;;;15.60;36.50;;;;;;8302093;28;19968;-49
2021/12/19 20:04:43;;;;;;;;;;;15.60;36.60;;;;;;8301400;28;19917;-48
2021/12/19 20:08:44;;;;;;;;;;;15.60;36.50;;;;;;8301781;28;19913;-49
2021/12/19 20:12:44;;;;;;;;;;;15.60;36.60;;;;;;8300890;28;19971;-49
2021/12/19 20:16:45;;;;;;;;;;;15.60;36.60;;;;;;8301264;28;20009;-49
2021/12/19 20:20:48;;;;;;;;;;;15.60;36.60;;;;;;8301340;28;19917;-49
2021/12/19 20:24:51;;;;;;;;;;;15.70;36.60;;;;;;8301289;28;19918;-49
2021/12/19 20:28:53;;;;;;;;;;;15.70;36.60;;;;;;8300628;28;19948;-48
2021/12/19 20:32:55;;;;;;;;;;;15.70;36.50;;;;;;8301256;28;19918;-48
2021/12/19 20:36:57;;;;;;;;;;;15.70;36.40;;;;;;8301196;28;19917;-48
2021/12/19 20:40:58;;;;;;;;;;;15.70;36.50;;;;;;8300163;28;19924;-49
2021/12/19 20:45:00;;;;;;;;;;;15.70;36.40;;;;;;8299154;28;19926;-48
2021/12/19 20:49:06;;;;;;;;;;;15.70;36.40;;;;;;8300448;28;19917;-48
2021/12/19 20:53:07;;;;;;;;;;;15.70;36.40;;;;;;8299973;28;19914;-49
2021/12/19 20:57:07;;;;;;;;;;;15.70;36.50;;;;;;8300545;28;19992;-51
2021/12/19 21:01:08;;;;;;;;;;;15.70;36.40;;;;;;8300119;28;19964;-48
2021/12/19 21:05:10;;;;;;;;;;;15.70;36.40;;;;;;8299664;28;19922;-49
2021/12/19 21:09:17;;;;;;;;;;;15.70;36.40;;;;;;8300010;28;19931;-49
2021/12/19 21:13:21;;;;;;;;;;;15.70;36.50;;;;;;8301746;28;20278;-51
2021/12/19 21:21:40;;;;;;;;;;;15.70;36.50;;;;;;8299729;28;19925;-48
2021/12/19 21:25:40;;;;;;;;;;;15.70;36.50;;;;;;8298300;28;19918;-51
2021/12/19 21:29:45;;;;;;;;;;;15.70;36.50;;;;;;8299252;28;19926;-49
2021/12/19 21:33:47;;;;;;;;;;;15.60;36.50;;;;;;8299126;28;19940;-49
2021/12/19 21:42:06;;;;;;;;;;;15.60;36.50;;;;;;8299599;28;19924;-49
2021/12/19 21:46:07;;;;;;;;;;;15.60;36.50;;;;;;8299414;28;20367;-48
2021/12/19 21:50:08;;;;;;;;;;;15.60;36.50;;;;;;8298398;28;19979;-50
2021/12/19 21:54:08;;;;;;;;;;;15.60;36.50;;;;;;8298792;28;20456;-49
2021/12/19 21:58:09;;;;;;;;;;;15.60;36.50;;;;;;8298227;28;19917;-47
2021/12/19 22:02:10;;;;;;;;;;;15.60;36.60;;;;;;8298361;28;19926;-48
2021/12/19 22:06:10;;;;;;;;;;;15.60;36.60;;;;;;8298255;28;19922;-48
2021/12/19 22:10:11;;;;;;;;;;;15.60;36.60;;;;;;8297619;28;20063;-53
2021/12/19 22:18:13;;;;;;;;;;;15.60;36.60;;;;;;8298539;28;19913;-49
2021/12/19 22:22:13;;;;;;;;;;;15.60;36.60;;;;;;8297424;28;19925;-50
2021/12/19 22:26:14;;;;;;;;;;;15.60;36.60;;;;;;8297795;28;19956;-48
2021/12/19 22:30:14;;;;;;;;;;;15.60;36.60;;;;;;8298013;28;19996;-49
2021/12/19 22:34:15;;;;;;;;;;;15.60;36.50;;;;;;8297551;28;20310;-50
2021/12/19 22:38:15;;;;;;;;;;;15.70;36.50;;;;;;8297757;28;20375;-49
2021/12/19 22:42:16;;;;;;;;;;;15.70;36.50;;;;;;8297729;28;19956;-49
2021/12/19 22:46:16;;;;;;;;;;;15.70;36.40;;;;;;8297461;28;19921;-50
2021/12/19 22:50:17;;;;;;;;;;;15.70;36.40;;;;;;8297616;28;19925;-49
2021/12/19 22:54:17;;;;;;;;;;;15.70;36.40;;;;;;8297380;28;19925;-50
2021/12/19 22:58:18;;;;;;;;;;;15.70;36.50;;;;;;8297221;28;19979;-49
2021/12/19 23:02:18;;;;;;;;;;;15.60;36.50;;;;;;8295826;28;19960;-48
2021/12/19 23:06:19;;;;;;;;;;;15.70;36.50;;;;;;8297059;28;19917;-48
2021/12/19 23:10:20;;;;;;;;;;;15.60;36.50;;;;;;8296671;28;20294;-48
2021/12/19 23:14:25;;;;;;;;;;;15.60;36.50;;;;;;8296876;28;19952;-50
2021/12/19 23:18:26;;;;;;;;;;;15.60;36.50;;;;;;8297190;28;19937;-50
2021/12/19 23:22:26;;;;;;;;;;;15.60;36.50;;;;;;8296663;28;19945;-49
2021/12/19 23:26:27;;;;;;;;;;;15.60;36.50;;;;;;8296987;28;19941;-49
2021/12/19 23:30:27;;;;;;;;;;;15.60;36.50;;;;;;8296731;28;19979;-50
2021/12/19 23:34:28;;;;;;;;;;;15.60;36.50;;;;;;8296321;28;20119;-49
2021/12/19 23:38:48;;;;;;;;;;;15.60;36.50;;;;;;8297047;28;19917;-48
2021/12/19 23:47:08;;;;;;;;;;;15.60;36.50;;;;;;8297176;28;20290;-49
2021/12/19 23:51:09;;;;;;;;;;;15.50;36.40;;;;;;8302272;28;19929;-49
2021/12/19 23:55:11;;;;;;;;;;;15.50;36.40;;;;;;8301817;28;20426;-48
2021/12/19 23:59:11;;;;;;;;;;;15.50;36.50;;;;;;8302627;28;20303;-50
